createdAt,value
2019-04-23T00:01:55.592Z,76.20
2019-04-23T00:04:23.974Z,76.10
2019-04-23T00:07:06.274Z,76.10
2019-04-23T00:09:32.858Z,76.30
2019-04-23T00:11:59.946Z,76.80
2019-04-23T00:14:38.006Z,77.10
2019-04-23T00:16:58.510Z,77.00
2019-04-23T00:19:37.112Z,76.80
2019-04-23T00:22:07.318Z,77.30
2019-04-23T00:25:09.752Z,77.10
2019-04-23T00:27:22.888Z,77.30
2019-04-23T00:29:46.213Z,78.00
2019-04-23T00:32:15.366Z,78.40
2019-04-23T00:34:49.653Z,78.10
2019-04-23T00:37:18.873Z,78.20
2019-04-23T00:39:51.488Z,78.10
2019-04-23T00:42:14.873Z,78.50
2019-04-23T00:44:48.123Z,78.80
2019-04-23T00:47:22.386Z,78.40
2019-04-23T00:49:53.365Z,78.70
2019-04-23T00:54:52.843Z,79.50
2019-04-23T00:57:24.169Z,79.50
2019-04-23T00:59:53.655Z,79.90
2019-04-23T01:02:18.358Z,79.40
2019-04-23T01:04:52.764Z,79.50
2019-04-23T01:07:18.779Z,79.50
2019-04-23T01:09:56.187Z,79.70
2019-04-23T01:12:27.185Z,80.70
2019-04-23T01:14:53.818Z,80.30
2019-04-23T01:17:30.267Z,80.30
2019-04-23T01:19:58.043Z,81.30
2019-04-23T01:22:06.459Z,83.20
2019-04-23T01:24:41.882Z,83.50
2019-04-23T01:27:44.572Z,84.70
2019-04-23T01:30:15.823Z,84.70
2019-04-23T01:32:36.557Z,85.30
2019-04-23T01:35:21.948Z,85.70
2019-04-23T01:37:43.361Z,86.20
2019-04-23T01:45:21.787Z,87.50
2019-04-23T01:47:46.046Z,88.60
2019-04-23T01:55:21.281Z,87.70
2019-04-23T01:57:58.521Z,89.00
2019-04-23T02:02:49.944Z,88.90
2019-04-23T02:05:22.884Z,89.20
2019-04-23T02:07:50.486Z,89.50
2019-04-23T02:10:39.479Z,89.60
2019-04-23T02:15:16.917Z,89.50
2019-04-23T02:17:52.114Z,90.00
2019-04-23T02:20:23.747Z,90.20
2019-04-23T02:25:39.664Z,90.60
2019-04-23T02:28:04.803Z,90.90
2019-04-23T02:30:57.870Z,90.90
2019-04-23T02:33:29.438Z,91.10
2019-04-23T02:38:44.303Z,90.70
2019-04-23T02:40:51.082Z,90.90
2019-04-23T02:45:43.990Z,91.40
2019-04-23T02:48:10.753Z,91.60
2019-04-23T02:55:43.746Z,91.80
2019-04-23T02:58:11.202Z,91.70
2019-04-23T03:05:45.991Z,91.60
2019-04-23T03:08:24.514Z,91.40
2019-04-23T03:10:55.208Z,91.10
2019-04-23T03:13:44.582Z,91.20
2019-04-23T03:16:04.476Z,91.80
2019-04-23T03:18:39.817Z,91.60
2019-04-23T03:24:01.565Z,91.20
2019-04-23T03:35:08.856Z,91.90
2019-04-23T03:36:56.455Z,91.90
2019-04-23T03:39:32.535Z,92.40
2019-04-23T03:43:51.530Z,92.40
2019-04-23T03:48:57.082Z,92.50
2019-04-23T03:51:42.699Z,92.60
2019-04-23T03:56:52.507Z,92.70
2019-04-23T03:59:11.913Z,92.50
2019-04-23T04:01:40.957Z,92.40
2019-04-23T04:04:26.923Z,92.50
2019-04-23T04:06:45.453Z,92.40
2019-04-23T04:11:36.388Z,92.10
2019-04-23T04:14:21.093Z,92.00
2019-04-23T04:16:42.544Z,92.40
2019-04-23T04:19:16.785Z,92.50
2019-04-23T04:21:44.629Z,93.00
2019-04-23T04:26:53.307Z,91.50
2019-04-23T04:31:47.741Z,91.60
2019-04-23T04:34:43.828Z,91.70
2019-04-23T04:36:58.548Z,92.00
2019-04-23T04:39:17.788Z,92.00
2019-04-23T04:41:55.416Z,91.90
2019-04-23T04:49:44.112Z,91.70
2019-04-23T04:52:01.096Z,91.40
2019-04-23T04:54:21.552Z,91.60
2019-04-23T04:56:52.706Z,91.30
2019-04-23T04:59:39.753Z,91.50
2019-04-23T05:02:01.159Z,91.20
2019-04-23T05:04:32.615Z,91.20
2019-04-23T05:07:10.229Z,91.40
2019-04-23T05:14:26.939Z,91.10
2019-04-23T05:16:50.705Z,90.90
2019-04-23T05:19:31.612Z,90.70
2019-04-23T05:21:58.761Z,90.70
2019-04-23T05:24:30.665Z,90.80
2019-04-23T05:26:50.823Z,90.80
2019-04-23T05:29:14.799Z,90.90
2019-04-23T05:31:53.197Z,90.80
2019-04-23T05:34:24.651Z,90.80
2019-04-23T05:37:00.286Z,90.70
2019-04-23T05:39:29.103Z,90.70
2019-04-23T05:41:55.852Z,90.60
2019-04-23T05:44:29.699Z,90.30
2019-04-23T05:47:11.812Z,90.00
2019-04-23T05:49:27.897Z,90.30
2019-04-23T05:52:04.471Z,89.50
2019-04-23T05:54:27.774Z,89.30
2019-04-23T05:56:58.420Z,89.00
2019-04-23T05:59:41.909Z,88.70
2019-04-23T06:01:57.006Z,88.70
2019-04-23T06:04:30.660Z,88.50
2019-04-23T06:07:15.127Z,88.10
2019-04-23T06:09:31.177Z,88.30
2019-04-23T06:12:01.412Z,87.80
2019-04-23T06:17:12.541Z,86.40
2019-04-23T06:19:59.699Z,86.00
2019-04-23T06:24:39.844Z,85.20
2019-04-23T06:27:08.243Z,84.30
2019-04-23T06:29:49.896Z,84.00
2019-04-23T06:32:07.927Z,82.80
2019-04-23T06:34:38.255Z,81.50
2019-04-23T06:37:14.705Z,81.10
2019-04-23T06:42:09.590Z,79.10
2019-04-23T06:44:45.723Z,78.70
2019-04-23T06:47:17.043Z,77.90
2019-04-23T06:49:51.308Z,77.90
2019-04-23T06:52:19.125Z,76.50
2019-04-23T06:54:54.387Z,76.70
2019-04-23T06:57:17.849Z,75.60
2019-04-23T06:59:50.673Z,75.90
2019-04-23T07:02:23.901Z,74.50
2019-04-23T07:05:02.240Z,73.70
2019-04-23T07:09:52.754Z,72.00
2019-04-23T07:12:21.991Z,71.90
2019-04-23T07:17:16.727Z,70.00
2019-04-23T07:19:48.383Z,68.70
2019-04-23T07:24:55.781Z,69.10
2019-04-23T07:27:31.314Z,67.00
2019-04-23T07:29:58.541Z,66.60
2019-04-23T07:32:22.933Z,64.40
2019-04-23T07:35:00.910Z,62.80
2019-04-23T07:37:23.000Z,61.70
2019-04-23T07:40:23.113Z,60.90
2019-04-23T07:42:37.237Z,60.30
2019-04-23T07:45:12.400Z,59.70
2019-04-23T07:47:48.290Z,61.00
2019-04-23T07:52:50.696Z,57.80
2019-04-23T07:55:20.114Z,60.00
2019-04-23T07:57:40.217Z,55.60
2019-04-23T08:00:22.941Z,55.00
2019-04-23T08:02:44.133Z,54.30
2019-04-23T08:05:22.495Z,55.30
2019-04-23T08:07:44.134Z,51.30
2019-04-23T08:10:14.056Z,50.00
2019-04-23T08:12:46.933Z,48.60
2019-04-23T08:15:18.138Z,48.80
2019-04-23T08:17:43.446Z,49.40
2019-04-23T08:20:11.165Z,48.50
2019-04-23T08:22:45.795Z,44.50
2019-04-23T08:25:17.780Z,45.70
2019-04-23T08:27:53.471Z,44.50
2019-04-23T08:30:17.460Z,45.30
2019-04-23T08:32:53.941Z,41.10
2019-04-23T08:35:23.138Z,43.00
2019-04-23T08:38:11.576Z,42.00
2019-04-23T08:45:35.378Z,39.60
2019-04-23T08:48:21.767Z,40.60
2019-04-23T08:50:44.940Z,39.20
2019-04-23T08:53:34.234Z,38.30
2019-04-23T08:55:49.885Z,35.40
2019-04-23T08:58:31.650Z,37.50
2019-04-23T09:00:51.815Z,38.10
2019-04-23T09:05:57.642Z,38.80
2019-04-23T09:10:56.763Z,37.60
2019-04-23T09:15:56.592Z,38.10
2019-04-23T09:20:52.986Z,38.30
2019-04-23T09:23:32.992Z,36.90
2019-04-23T09:25:55.147Z,38.40
2019-04-23T09:28:38.506Z,37.20
2019-04-23T09:31:05.194Z,34.60
2019-04-23T09:33:42.879Z,34.90
2019-04-23T09:36:08.309Z,34.90
2019-04-23T09:38:41.427Z,35.40
2019-04-23T09:41:27.403Z,33.00
2019-04-23T09:43:52.159Z,34.70
2019-04-23T09:46:24.365Z,33.60
2019-04-23T09:48:58.218Z,34.00
2019-04-23T09:51:25.492Z,31.30
2019-04-23T09:53:51.345Z,31.20
2019-04-23T09:56:26.477Z,31.30
2019-04-23T09:59:02.422Z,30.60
2019-04-23T10:03:49.372Z,31.70
2019-04-23T10:06:12.455Z,32.30
2019-04-23T10:08:42.116Z,30.00
2019-04-23T10:11:07.464Z,31.30
2019-04-23T10:13:36.501Z,31.30
2019-04-23T10:16:06.856Z,31.50
2019-04-23T10:18:37.226Z,29.90
2019-04-23T10:21:07.616Z,30.50
2019-04-23T10:23:37.030Z,30.30
2019-04-23T10:26:06.283Z,29.70
2019-04-23T10:28:38.174Z,27.90
2019-04-23T10:31:07.236Z,28.70
2019-04-23T10:33:35.980Z,28.60
2019-04-23T10:36:10.753Z,28.50
2019-04-23T10:38:36.394Z,28.50
2019-04-23T10:41:06.398Z,29.10
2019-04-23T10:43:39.160Z,29.90
2019-04-23T10:46:38.047Z,27.80
2019-04-23T10:56:59.001Z,25.70
2019-04-23T11:07:26.930Z,23.70
2019-04-23T11:09:55.808Z,24.60
2019-04-23T11:12:32.078Z,22.90
2019-04-23T11:14:58.235Z,23.50
2019-04-23T11:17:36.437Z,23.10
2019-04-23T11:20:07.772Z,22.90
2019-04-23T11:22:42.495Z,24.00
2019-04-23T11:25:04.212Z,25.50
2019-04-23T11:27:31.319Z,22.70
2019-04-23T11:30:00.125Z,21.80
2019-04-23T11:35:11.499Z,22.00
2019-04-23T11:37:41.201Z,23.60
2019-04-23T11:40:02.842Z,23.40
2019-04-23T11:42:26.245Z,23.10
2019-04-23T11:45:19.258Z,24.10
2019-04-23T11:50:16.221Z,24.10
2019-04-23T11:52:36.659Z,23.80
2019-04-23T11:55:05.298Z,24.00
2019-04-23T11:57:40.803Z,24.30
2019-04-23T12:00:01.095Z,23.80
2019-04-23T12:02:51.601Z,22.70
2019-04-23T12:05:26.546Z,23.60
2019-04-23T12:08:07.346Z,23.70
2019-04-23T12:11:10.312Z,22.70
2019-04-23T12:13:14.991Z,23.40
2019-04-23T12:15:37.556Z,21.90
2019-04-23T12:18:10.102Z,22.20
2019-04-23T12:20:41.303Z,22.40
2019-04-23T12:23:25.944Z,22.40
2019-04-23T12:25:48.432Z,22.90
2019-04-23T12:28:14.176Z,23.50
2019-04-23T12:30:48.636Z,24.10
2019-04-23T12:33:23.420Z,23.80
2019-04-23T12:35:42.316Z,24.10
2019-04-23T12:40:51.202Z,23.10
2019-04-23T12:43:20.690Z,23.40
2019-04-23T12:48:36.828Z,22.60
2019-04-23T12:55:54.178Z,23.10
2019-04-23T13:00:51.412Z,22.60
2019-04-23T13:05:50.586Z,21.70
2019-04-23T13:08:33.691Z,22.30
2019-04-23T13:10:58.550Z,22.00
2019-04-23T13:15:51.957Z,21.80
2019-04-23T13:18:34.742Z,21.20
2019-04-23T13:21:00.095Z,20.80
2019-04-23T13:23:32.596Z,18.90
2019-04-23T13:28:35.335Z,18.90
2019-04-23T13:31:08.552Z,18.10
2019-04-23T13:33:40.984Z,18.50
2019-04-23T13:36:10.756Z,19.60
2019-04-23T13:41:09.073Z,19.00
2019-04-23T13:48:31.505Z,18.50
2019-04-23T13:51:19.774Z,18.10
2019-04-23T13:53:46.688Z,18.40
2019-04-23T13:56:11.378Z,18.40
2019-04-23T13:58:50.195Z,17.80
2019-04-23T14:03:45.419Z,17.40
2019-04-23T14:08:53.804Z,17.70
2019-04-23T14:11:20.954Z,18.40
2019-04-23T14:13:52.053Z,18.20
2019-04-23T14:16:21.266Z,18.00
2019-04-23T14:24:04.711Z,17.60
2019-04-23T14:28:44.892Z,18.20
2019-04-23T14:31:31.718Z,17.80
2019-04-23T14:34:00.109Z,18.30
2019-04-23T14:36:39.310Z,18.00
2019-04-23T14:41:24.917Z,17.50
2019-04-23T14:49:01.303Z,17.70
2019-04-23T14:51:32.040Z,18.20
2019-04-23T14:53:55.070Z,18.30
2019-04-23T14:56:27.697Z,18.00
2019-04-23T14:59:03.672Z,17.10
2019-04-23T15:09:09.300Z,17.80
2019-04-23T15:14:01.970Z,17.40
2019-04-23T15:16:39.618Z,17.60
2019-04-23T15:19:10.929Z,17.80
2019-04-23T15:21:49.510Z,17.30
2019-04-23T15:24:25.277Z,16.20
2019-04-23T15:28:44.151Z,16.50
2019-04-23T15:31:39.533Z,16.80
2019-04-23T15:34:14.165Z,17.20
2019-04-23T15:39:24.392Z,17.40
2019-04-23T15:41:59.238Z,16.60
2019-04-23T15:44:10.454Z,16.80
2019-04-23T15:46:39.488Z,16.60
2019-04-23T15:49:18.130Z,15.80
2019-04-23T15:51:48.255Z,16.50
2019-04-23T15:54:13.730Z,16.10
2019-04-23T15:56:47.232Z,15.80
2019-04-23T16:03:45.377Z,15.50
2019-04-23T16:06:16.559Z,15.30
2019-04-23T16:09:06.424Z,15.60
2019-04-23T16:11:43.917Z,15.60
2019-04-23T16:14:28.169Z,16.10
2019-04-23T16:16:46.398Z,16.80
2019-04-23T16:19:22.026Z,16.90
2019-04-23T16:22:01.585Z,17.00
2019-04-23T16:24:26.425Z,17.60
2019-04-23T16:26:55.904Z,18.10
2019-04-23T16:29:34.510Z,17.70
2019-04-23T16:34:30.504Z,18.00
2019-04-23T16:39:21.659Z,19.20
2019-04-23T16:42:01.827Z,19.90
2019-04-23T16:44:36.374Z,20.70
2019-04-23T16:47:06.738Z,21.00
2019-04-23T16:49:33.125Z,21.50
2019-04-23T16:51:57.539Z,21.70
2019-04-23T16:54:32.616Z,21.50
2019-04-23T16:59:42.634Z,22.10
2019-04-23T17:04:30.321Z,22.40
2019-04-23T17:09:42.450Z,22.50
2019-04-23T17:12:06.433Z,22.80
2019-04-23T17:14:23.150Z,22.70
2019-04-23T17:16:53.447Z,22.80
2019-04-23T17:19:27.963Z,23.10
2019-04-23T17:22:04.553Z,23.10
2019-04-23T17:24:53.677Z,23.20
2019-04-23T17:27:08.469Z,23.80
2019-04-23T17:29:35.176Z,24.30
2019-04-23T17:32:19.699Z,24.80
2019-04-23T17:35:05.247Z,25.50
2019-04-23T17:37:35.153Z,25.90
2019-04-23T17:40:03.565Z,26.20
2019-04-23T17:45:21.117Z,26.60
2019-04-23T17:47:35.244Z,27.00
2019-04-23T17:50:07.155Z,27.10
2019-04-23T17:52:37.287Z,27.50
2019-04-23T17:55:13.357Z,27.30
2019-04-23T17:57:37.670Z,27.80
2019-04-23T18:00:17.880Z,27.50
2019-04-23T18:12:45.296Z,27.70
2019-04-23T18:15:14.430Z,27.90
2019-04-23T18:17:45.259Z,28.10
2019-04-23T18:20:17.869Z,28.40
2019-04-23T18:22:56.801Z,28.60
2019-04-23T18:25:26.180Z,29.10
2019-04-23T18:30:26.447Z,29.10
2019-04-23T18:33:38.078Z,29.30
2019-04-23T18:35:29.385Z,29.00
2019-04-23T18:38:06.996Z,29.30
2019-04-23T18:40:41.984Z,29.40
2019-04-23T18:43:11.647Z,29.40
2019-04-23T18:48:38.894Z,29.60
2019-04-23T18:51:01.115Z,29.40
2019-04-23T18:53:37.289Z,29.30
2019-04-23T18:56:11.305Z,29.50
2019-04-23T18:58:34.435Z,29.80
2019-04-23T19:01:05.079Z,29.60
2019-04-23T19:06:13.276Z,29.70
2019-04-23T19:09:03.149Z,29.70
2019-04-23T19:11:44.539Z,29.70
2019-04-23T19:14:10.904Z,30.00
2019-04-23T19:16:50.586Z,30.10
2019-04-23T19:19:11.601Z,30.00
2019-04-23T19:22:12.352Z,30.40
2019-04-23T19:24:33.083Z,30.40
2019-04-23T19:27:10.880Z,30.50
2019-04-23T19:29:42.739Z,30.50
2019-04-23T19:31:58.330Z,30.90
2019-04-23T19:37:18.648Z,31.10
2019-04-23T19:42:03.901Z,31.50
2019-04-23T19:44:38.778Z,31.50
2019-04-23T19:49:37.022Z,31.80
2019-04-23T19:52:03.040Z,31.90
2019-04-23T19:54:50.856Z,32.00
2019-04-23T19:57:23.578Z,32.00
2019-04-23T20:02:15.145Z,32.50
2019-04-23T20:04:41.170Z,32.50
2019-04-23T20:09:48.592Z,32.80
2019-04-23T20:12:28.280Z,32.80
2019-04-23T20:14:48.810Z,32.90
2019-04-23T20:17:31.856Z,33.20
2019-04-23T20:19:44.851Z,33.30
2019-04-23T20:27:17.721Z,34.10
2019-04-23T20:30:37.985Z,34.70
2019-04-23T20:35:08.479Z,35.30
2019-04-23T20:38:02.554Z,35.50
2019-04-23T20:40:08.127Z,35.80
2019-04-23T20:42:35.028Z,35.80
2019-04-23T20:45:07.827Z,36.90
2019-04-23T20:47:37.337Z,36.50
2019-04-23T20:49:56.664Z,36.70
2019-04-23T20:52:35.450Z,37.10
2019-04-23T20:55:08.575Z,37.20
2019-04-23T21:00:34.100Z,37.60
2019-04-23T21:05:21.652Z,37.90
2019-04-23T21:08:13.848Z,38.10
2019-04-23T21:13:12.146Z,38.30
2019-04-23T21:15:32.816Z,38.20
2019-04-23T21:18:06.225Z,38.50
2019-04-23T21:25:44.205Z,38.80
2019-04-23T21:38:49.015Z,39.70
2019-04-23T21:41:39.385Z,40.00
2019-04-23T21:46:22.151Z,40.30
2019-04-23T21:51:30.872Z,40.90
2019-04-23T21:53:53.127Z,41.10
2019-04-23T21:56:26.135Z,41.30
2019-04-23T22:01:32.134Z,41.90
2019-04-23T22:04:08.535Z,42.10
2019-04-23T22:06:36.953Z,42.40
2019-04-23T22:09:10.333Z,42.50
2019-04-23T22:11:49.616Z,42.60
2019-04-23T22:16:41.036Z,43.00
2019-04-23T22:21:42.355Z,43.60
2019-04-23T22:26:35.361Z,43.90
2019-04-23T22:29:14.350Z,44.00
2019-04-23T22:34:22.207Z,44.70
2019-04-23T22:36:39.280Z,45.00
2019-04-23T22:39:11.634Z,45.30
2019-04-23T22:41:43.710Z,45.30
2019-04-23T22:44:09.542Z,46.20
2019-04-23T22:49:29.023Z,46.90
2019-04-23T22:54:11.835Z,47.30
2019-04-23T22:56:53.643Z,47.80
2019-04-23T23:06:57.271Z,49.70
2019-04-23T23:16:50.421Z,51.50
2019-04-23T23:19:23.723Z,51.80
2019-04-23T23:24:18.391Z,52.50
2019-04-23T23:29:21.941Z,52.90
2019-04-23T23:34:27.857Z,53.80
2019-04-23T23:37:00.172Z,54.10
2019-04-23T23:39:27.553Z,54.30
2019-04-23T23:41:57.011Z,54.60
2019-04-23T23:47:03.038Z,54.80
2019-04-23T23:49:27.816Z,54.90
2019-04-23T23:51:57.201Z,55.30
2019-04-23T23:54:27.582Z,55.30
2019-04-23T23:57:09.195Z,55.70
2019-04-23T23:59:38.863Z,55.90
